Alberta, Alabama
Current Conditions -  °F | °C
As of 1:35 AM on Saturday 01 Nov 2014 (Local Time) from KSEM Reporting Station
Few Clouds Few Clouds  
Wind Chill: 35°   Ceiling: Unl
Heat Index: 41°   Visibility: 10mi
Dew Point: 23°   Wind: 9mph
Humidity: 49%   Direction: 320°NW
Pressure: 30.18"   Gusts: 17mph
Location:  32.23°N, 87.41°W
Report Text: KSEM 010635Z AUTO 32008G15KT 10SM FEW016 05/M05 A3018 RMK AO2
Loading
Personal Weather Stations






























Interactive Weather Map
Tropical Storm Tracking
New forecast layout! Learn more

10-Day Weather Forecast

Advertisements
Track Severe Weather on mobile